Aviation Digital Data Service (ADDS)

Output produced by METARs form (1339 UTC 26 May 2018)
found at http://www.aviationweather.gov/adds/metars/
 
DBBB 261300Z 23013KT 9999 SCT013 30/25 Q1011 NOSIG
TAF DBBB 261100Z 2612/2718 22010KT 9999 SCT012 
     TEMPO 2614/2620 TS BKN012 FEW023CB